createdAt,value
2018-03-20T00:02:22.459Z,23.57
2018-03-20T00:04:50.110Z,25.20
2018-03-20T00:07:17.872Z,25.87
2018-03-20T00:09:45.542Z,23.80
2018-03-20T00:12:13.319Z,27.20
2018-03-20T00:14:40.948Z,25.20
2018-03-20T00:17:08.552Z,28.73
2018-03-20T00:19:36.939Z,26.60
2018-03-20T00:22:04.560Z,26.97
2018-03-20T00:24:32.175Z,25.53
2018-03-20T00:26:59.813Z,29.73
2018-03-20T00:29:27.479Z,27.10
2018-03-20T00:31:55.103Z,29.60
2018-03-20T00:34:22.843Z,31.13
2018-03-20T00:36:50.498Z,27.07
2018-03-20T00:39:18.123Z,26.53
2018-03-20T00:41:45.895Z,29.60
2018-03-20T00:44:13.498Z,23.63
2018-03-20T00:46:41.672Z,24.93
2018-03-20T00:49:09.298Z,26.30
2018-03-20T00:51:37.014Z,26.40
2018-03-20T00:54:04.790Z,24.30
2018-03-20T00:56:32.446Z,27.87
2018-03-20T00:59:00.436Z,27.10
2018-03-20T01:01:29.452Z,26.00
2018-03-20T01:03:57.062Z,27.87
2018-03-20T01:06:25.470Z,27.63
2018-03-20T01:08:53.148Z,28.60
2018-03-20T01:11:20.800Z,29.57
2018-03-20T01:13:48.422Z,29.67
2018-03-20T01:16:16.138Z,27.57
2018-03-20T01:18:43.907Z,28.93
2018-03-20T01:21:11.672Z,28.00
2018-03-20T01:23:39.308Z,27.47
2018-03-20T01:26:06.949Z,26.57
2018-03-20T01:28:34.574Z,29.63
2018-03-20T01:31:02.244Z,27.20
2018-03-20T01:33:30.128Z,29.50
2018-03-20T01:35:58.406Z,31.93
2018-03-20T01:38:26.029Z,28.77
2018-03-20T01:40:54.441Z,29.07
2018-03-20T01:43:23.314Z,29.47
2018-03-20T01:45:51.209Z,32.57
2018-03-20T01:48:18.941Z,29.93
2018-03-20T01:50:47.342Z,27.07
2018-03-20T01:53:19.865Z,31.57
2018-03-20T01:55:47.775Z,29.43
2018-03-20T01:58:16.335Z,30.50
2018-03-20T02:00:43.974Z,30.83
2018-03-20T02:03:11.637Z,31.37
2018-03-20T02:05:40.085Z,30.20
2018-03-20T02:08:08.517Z,29.43
2018-03-20T02:10:36.139Z,30.40
2018-03-20T02:13:04.887Z,29.07
2018-03-20T02:15:32.500Z,28.70
2018-03-20T02:18:00.881Z,26.40
2018-03-20T02:20:29.291Z,26.87
2018-03-20T02:22:56.916Z,29.17
2018-03-20T02:25:24.561Z,27.60
2018-03-20T02:27:52.292Z,28.07
2018-03-20T02:30:20.269Z,27.80
2018-03-20T02:32:47.890Z,28.03
2018-03-20T02:35:16.315Z,31.47
2018-03-20T02:37:43.976Z,28.80
2018-03-20T02:40:11.694Z,28.83
2018-03-20T02:42:39.332Z,31.03
2018-03-20T02:45:06.948Z,27.37
2018-03-20T02:47:35.347Z,29.77
2018-03-20T02:50:02.961Z,32.57
2018-03-20T02:52:30.810Z,32.27
2018-03-20T02:54:58.433Z,32.10
2018-03-20T02:57:26.788Z,34.17
2018-03-20T02:59:54.412Z,30.00
2018-03-20T03:02:22.025Z,31.30
2018-03-20T03:04:49.665Z,29.87
2018-03-20T03:07:17.277Z,33.67
2018-03-20T03:09:45.689Z,32.37
2018-03-20T03:12:13.331Z,33.30
2018-03-20T03:14:41.750Z,32.73
2018-03-20T03:17:09.421Z,32.50
2018-03-20T03:19:37.030Z,28.80
2018-03-20T03:22:04.661Z,30.87
2018-03-20T03:24:32.303Z,31.77
2018-03-20T03:26:59.920Z,31.00
2018-03-20T03:29:27.557Z,30.77
2018-03-20T03:31:55.186Z,33.40
2018-03-20T03:34:23.598Z,31.30
2018-03-20T03:36:51.265Z,30.30
2018-03-20T03:39:18.940Z,30.47
2018-03-20T03:41:46.556Z,28.90
2018-03-20T03:44:14.938Z,31.27
2018-03-20T03:46:43.465Z,29.03
2018-03-20T03:49:11.065Z,29.50
2018-03-20T03:51:40.332Z,31.50
2018-03-20T03:54:07.944Z,31.63
2018-03-20T03:56:35.584Z,29.50
2018-03-20T03:59:03.336Z,33.00
2018-03-20T04:01:30.955Z,32.47
2018-03-20T04:03:58.584Z,30.47
2018-03-20T04:06:26.233Z,30.97
2018-03-20T04:09:01.847Z,32.30
2018-03-20T04:11:29.508Z,33.10
2018-03-20T04:13:57.886Z,31.77
2018-03-20T04:16:25.523Z,31.33
2018-03-20T04:18:53.148Z,31.23
2018-03-20T04:21:20.828Z,31.97
2018-03-20T04:23:48.494Z,32.03
2018-03-20T04:26:16.166Z,30.90
2018-03-20T04:28:43.832Z,31.80
2018-03-20T04:31:11.499Z,31.20
2018-03-20T04:33:40.009Z,31.43
2018-03-20T04:36:07.957Z,33.73
2018-03-20T04:38:35.564Z,36.90
2018-03-20T04:41:03.204Z,32.30
2018-03-20T04:43:30.858Z,33.60
2018-03-20T04:45:58.475Z,32.43
2018-03-20T04:48:26.097Z,34.23
2018-03-20T04:50:53.721Z,35.60
2018-03-20T04:53:22.465Z,33.67
2018-03-20T04:55:50.071Z,31.57
2018-03-20T04:58:18.464Z,30.17
2018-03-20T05:00:46.873Z,34.50
2018-03-20T05:03:15.249Z,31.60
2018-03-20T05:05:42.897Z,35.13
2018-03-20T05:08:11.313Z,34.87
2018-03-20T05:10:38.975Z,31.43
2018-03-20T05:13:06.610Z,34.53
2018-03-20T05:15:34.996Z,34.10
2018-03-20T05:18:03.625Z,35.07
2018-03-20T05:20:43.931Z,36.00
2018-03-20T05:26:17.000Z,36.67
2018-03-20T05:28:44.835Z,39.50
2018-03-20T05:31:12.454Z,35.80
2018-03-20T05:33:40.413Z,39.07
2018-03-20T05:36:08.151Z,37.17
2018-03-20T05:38:35.781Z,36.67
2018-03-20T05:41:04.265Z,38.47
2018-03-20T05:43:32.668Z,36.37
2018-03-20T05:46:00.342Z,38.40
2018-03-20T05:48:39.822Z,42.10
2018-03-20T05:51:22.269Z,39.17
2018-03-20T05:53:49.912Z,36.80
2018-03-20T05:56:17.674Z,38.20
2018-03-20T05:58:45.288Z,38.10
2018-03-20T06:01:12.932Z,40.50
2018-03-20T06:03:41.316Z,36.77
2018-03-20T06:06:09.720Z,39.57
2018-03-20T06:08:37.380Z,37.60
2018-03-20T06:11:05.104Z,39.27
2018-03-20T06:13:32.766Z,38.00
2018-03-20T06:16:00.437Z,40.90
2018-03-20T06:18:28.110Z,40.50
2018-03-20T06:20:55.748Z,39.07
2018-03-20T06:23:23.379Z,40.80
2018-03-20T06:25:51.144Z,42.20
2018-03-20T06:28:19.549Z,41.33
2018-03-20T06:30:47.216Z,42.87
2018-03-20T06:33:14.880Z,40.67
2018-03-20T06:35:42.503Z,43.30
2018-03-20T06:38:10.897Z,40.37
2018-03-20T06:40:39.323Z,42.07
2018-03-20T06:43:06.992Z,40.50
2018-03-20T06:45:34.775Z,38.67
2018-03-20T06:48:02.377Z,42.17
2018-03-20T06:50:30.820Z,41.63
2018-03-20T06:52:58.568Z,40.57
2018-03-20T06:55:26.333Z,39.30
2018-03-20T06:57:53.960Z,38.87
2018-03-20T07:00:22.631Z,35.70
2018-03-20T07:02:51.030Z,42.17
2018-03-20T07:05:18.643Z,38.93
2018-03-20T07:07:46.303Z,45.77
2018-03-20T07:10:13.938Z,54.43
2018-03-20T07:12:41.611Z,40.00
2018-03-20T07:15:10.021Z,40.47
2018-03-20T07:17:37.693Z,41.23
2018-03-20T07:20:05.358Z,38.37
2018-03-20T07:22:32.999Z,39.00
2018-03-20T07:25:01.530Z,40.20
2018-03-20T07:27:29.122Z,37.27
2018-03-20T07:29:56.831Z,37.90
2018-03-20T07:32:25.207Z,39.73
2018-03-20T07:34:52.897Z,39.60
2018-03-20T07:37:20.525Z,36.10
2018-03-20T07:39:48.940Z,38.53
2018-03-20T07:42:16.595Z,36.10
2018-03-20T07:44:44.225Z,36.00
2018-03-20T07:47:13.390Z,37.70
2018-03-20T07:49:40.989Z,39.73
2018-03-20T07:52:08.634Z,38.33
2018-03-20T07:54:36.258Z,37.10
2018-03-20T07:57:12.833Z,37.53
2018-03-20T07:59:40.486Z,38.47
2018-03-20T08:02:08.968Z,39.23
2018-03-20T08:04:37.511Z,39.47
2018-03-20T08:07:05.138Z,44.73
2018-03-20T08:09:32.814Z,55.87
2018-03-20T08:12:00.489Z,43.50
2018-03-20T08:14:28.533Z,39.80
2018-03-20T08:16:56.925Z,45.83
2018-03-20T08:19:25.474Z,38.90
2018-03-20T08:21:53.084Z,42.53
2018-03-20T08:24:20.710Z,32.60
2018-03-20T08:26:48.403Z,32.37
2018-03-20T08:29:16.868Z,31.00
2018-03-20T08:31:44.464Z,30.60
2018-03-20T08:34:12.859Z,31.77
2018-03-20T08:36:40.530Z,39.23
2018-03-20T08:39:08.254Z,49.13
2018-03-20T08:41:36.631Z,37.97
2018-03-20T08:44:04.553Z,33.83
2018-03-20T08:46:32.215Z,43.17
2018-03-20T08:48:59.816Z,32.17
2018-03-20T08:51:27.556Z,34.00
2018-03-20T08:53:55.183Z,39.47
2018-03-20T08:56:22.887Z,31.90
2018-03-20T08:58:50.560Z,31.23
2018-03-20T09:01:18.554Z,35.20
2018-03-20T09:03:46.197Z,33.03
2018-03-20T09:06:13.805Z,35.37
2018-03-20T09:08:41.450Z,32.63
2018-03-20T09:11:09.096Z,31.90
2018-03-20T09:13:36.719Z,31.70
2018-03-20T09:16:04.348Z,33.77
2018-03-20T09:18:32.316Z,36.27
2018-03-20T09:20:59.926Z,37.83
2018-03-20T09:23:28.318Z,35.17
2018-03-20T09:25:56.748Z,35.43
2018-03-20T09:28:25.152Z,36.40
2018-03-20T09:30:52.793Z,36.40
2018-03-20T09:33:20.406Z,37.10
2018-03-20T09:35:48.940Z,36.37
2018-03-20T09:38:16.533Z,38.10
2018-03-20T09:40:47.545Z,34.00
2018-03-20T09:43:15.176Z,36.70
2018-03-20T09:45:42.804Z,34.03
2018-03-20T09:48:10.461Z,35.33
2018-03-20T09:50:38.073Z,37.70
2018-03-20T09:53:06.113Z,30.20
2018-03-20T09:55:33.753Z,33.73
2018-03-20T09:58:01.372Z,33.07
2018-03-20T10:00:29.772Z,31.97
2018-03-20T10:02:58.150Z,29.83
2018-03-20T10:05:26.569Z,32.30
2018-03-20T10:07:54.192Z,31.97
2018-03-20T10:10:21.835Z,31.97
2018-03-20T10:12:49.459Z,33.83
2018-03-20T10:15:17.099Z,31.60
2018-03-20T10:17:45.619Z,29.83
2018-03-20T10:20:13.354Z,30.97
2018-03-20T10:22:41.833Z,30.07
2018-03-20T10:25:09.456Z,30.53
2018-03-20T10:27:37.134Z,29.90
2018-03-20T10:30:04.761Z,31.83
2018-03-20T10:32:32.438Z,33.70
2018-03-20T10:35:00.223Z,29.73
2018-03-20T10:37:27.955Z,30.83
2018-03-20T10:39:56.583Z,33.30
2018-03-20T10:42:24.201Z,32.43
2018-03-20T10:44:52.630Z,33.73
2018-03-20T10:47:20.248Z,33.20
2018-03-20T10:49:48.177Z,34.03
2018-03-20T10:52:15.986Z,33.80
2018-03-20T10:54:44.362Z,29.90
2018-03-20T10:57:12.775Z,37.50
2018-03-20T10:59:40.466Z,29.67
2018-03-20T11:02:13.716Z,34.07
2018-03-20T11:04:41.342Z,36.50
2018-03-20T11:07:09.291Z,32.50
2018-03-20T11:09:36.926Z,34.83
2018-03-20T11:12:05.302Z,30.50
2018-03-20T11:14:32.946Z,37.73
2018-03-20T11:17:00.583Z,32.40
2018-03-20T11:19:28.224Z,24.23
2018-03-20T11:21:55.842Z,30.53
2018-03-20T11:24:23.470Z,25.33
2018-03-20T11:26:51.136Z,23.63
2018-03-20T11:29:18.755Z,25.13
2018-03-20T11:31:46.376Z,28.50
2018-03-20T11:34:14.171Z,23.53
2018-03-20T11:36:41.814Z,27.00
2018-03-20T11:39:09.538Z,25.30
2018-03-20T11:41:37.972Z,26.03
2018-03-20T11:44:05.633Z,27.00
2018-03-20T11:46:33.224Z,26.80
2018-03-20T11:49:00.863Z,23.33
2018-03-20T11:51:28.482Z,25.70
2018-03-20T11:53:56.112Z,20.33
2018-03-20T11:56:23.856Z,21.63
2018-03-20T11:58:51.601Z,28.20
2018-03-20T12:01:19.987Z,22.93
2018-03-20T12:03:48.375Z,22.47
2018-03-20T12:06:16.975Z,22.17
2018-03-20T12:08:49.763Z,24.40
2018-03-20T12:11:17.405Z,26.30
2018-03-20T12:13:45.794Z,21.40
2018-03-20T12:16:13.471Z,19.27
2018-03-20T12:18:41.088Z,19.40
2018-03-20T12:21:08.725Z,21.43
2018-03-20T12:23:36.392Z,24.63
2018-03-20T12:26:04.051Z,28.10
2018-03-20T12:28:32.029Z,23.87
2018-03-20T12:30:59.890Z,21.07
2018-03-20T12:33:27.500Z,18.87
2018-03-20T12:35:55.878Z,19.50
2018-03-20T12:38:23.608Z,19.83
2018-03-20T12:40:51.617Z,18.97
2018-03-20T12:43:19.255Z,19.97
2018-03-20T12:45:46.880Z,16.90
2018-03-20T12:48:14.517Z,19.10
2018-03-20T12:50:42.132Z,19.17
2018-03-20T12:53:10.532Z,17.50
2018-03-20T12:55:38.228Z,17.57
2018-03-20T12:58:06.129Z,17.00
2018-03-20T13:00:33.836Z,18.10
2018-03-20T13:03:01.456Z,19.80
2018-03-20T13:05:29.114Z,20.50
2018-03-20T13:07:56.794Z,20.40
2018-03-20T13:10:24.489Z,23.03
2018-03-20T13:12:52.883Z,17.40
2018-03-20T13:15:20.507Z,25.13
2018-03-20T13:17:48.937Z,20.20
2018-03-20T13:20:16.547Z,21.30
2018-03-20T13:22:44.275Z,21.97
2018-03-20T13:25:11.912Z,23.67
2018-03-20T13:27:40.302Z,21.50
2018-03-20T13:30:08.791Z,20.00
2018-03-20T13:32:37.174Z,16.80
2018-03-20T13:35:04.859Z,17.07
2018-03-20T13:37:32.470Z,16.70
2018-03-20T13:40:00.111Z,19.60
2018-03-20T13:42:27.720Z,19.30
2018-03-20T13:44:55.319Z,20.93
2018-03-20T13:47:22.961Z,16.77
2018-03-20T13:49:51.445Z,20.10
2018-03-20T13:52:19.162Z,18.20
2018-03-20T13:54:46.796Z,19.43
2018-03-20T13:57:14.422Z,17.60
2018-03-20T13:59:42.047Z,15.70
2018-03-20T14:02:09.705Z,15.30
2018-03-20T14:04:37.525Z,14.47
2018-03-20T14:07:05.259Z,18.93
2018-03-20T14:09:33.032Z,19.57
2018-03-20T14:12:00.662Z,20.20
2018-03-20T14:14:29.167Z,17.07
2018-03-20T14:16:56.800Z,15.80
2018-03-20T14:19:24.442Z,14.23
2018-03-20T14:21:52.292Z,14.43
2018-03-20T14:24:19.930Z,15.63
2018-03-20T14:26:47.570Z,16.27
2018-03-20T14:29:15.190Z,17.53
2018-03-20T14:31:47.136Z,16.10
2018-03-20T14:34:14.756Z,17.20
2018-03-20T14:36:43.142Z,17.30
2018-03-20T14:39:11.668Z,16.10
2018-03-20T14:41:39.294Z,16.80
2018-03-20T14:44:06.922Z,16.60
2018-03-20T14:46:34.589Z,17.33
2018-03-20T14:49:02.166Z,16.00
2018-03-20T14:51:29.828Z,15.60
2018-03-20T14:53:57.455Z,17.10
2018-03-20T14:56:25.070Z,20.83
2018-03-20T14:58:52.722Z,26.10
2018-03-20T15:01:20.345Z,51.40
2018-03-20T15:03:48.664Z,23.13
2018-03-20T15:06:16.280Z,18.73
2018-03-20T15:08:44.141Z,22.63
2018-03-20T15:11:11.875Z,19.07
2018-03-20T15:13:39.519Z,16.67
2018-03-20T15:16:07.339Z,18.03
2018-03-20T15:18:34.952Z,17.13
2018-03-20T15:21:02.641Z,14.73
2018-03-20T15:23:30.339Z,13.67
2018-03-20T15:25:57.979Z,15.50
2018-03-20T15:28:25.625Z,14.57
2018-03-20T15:30:53.236Z,13.70
2018-03-20T15:33:20.864Z,16.13
2018-03-20T15:35:48.484Z,16.33
2018-03-20T15:38:16.353Z,15.70
2018-03-20T15:40:44.731Z,16.50
2018-03-20T15:43:12.432Z,14.07
2018-03-20T15:45:40.107Z,15.10
2018-03-20T15:48:07.744Z,13.53
2018-03-20T15:50:36.172Z,16.70
2018-03-20T15:53:03.825Z,17.87
2018-03-20T15:55:31.494Z,19.70
2018-03-20T15:57:59.134Z,17.70
2018-03-20T16:00:27.620Z,18.17
2018-03-20T16:02:56.052Z,16.07
2018-03-20T16:05:23.798Z,14.10
2018-03-20T16:07:51.472Z,14.57
2018-03-20T16:10:19.132Z,13.33
2018-03-20T16:12:46.954Z,12.63
2018-03-20T16:15:14.770Z,13.17
2018-03-20T16:17:42.448Z,13.90
2018-03-20T16:20:10.104Z,11.93
2018-03-20T16:22:37.779Z,13.10
2018-03-20T16:25:05.509Z,13.60
2018-03-20T16:27:33.931Z,14.40
2018-03-20T16:30:01.552Z,13.37
2018-03-20T16:32:29.947Z,14.70
2018-03-20T16:34:58.341Z,16.70
2018-03-20T16:37:26.013Z,13.20
2018-03-20T16:39:53.628Z,15.37
2018-03-20T16:42:21.296Z,14.30
2018-03-20T16:44:49.134Z,17.00
2018-03-20T16:47:16.754Z,17.37
2018-03-20T16:49:44.418Z,18.83
2018-03-20T16:52:13.539Z,19.97
2018-03-20T16:54:41.971Z,19.23
2018-03-20T16:57:09.628Z,19.40
2018-03-20T16:59:37.380Z,17.67
2018-03-20T17:02:05.130Z,15.67
2018-03-20T17:04:32.831Z,15.20
2018-03-20T17:07:00.524Z,14.93
2018-03-20T17:09:28.457Z,17.13
2018-03-20T17:11:56.143Z,14.30
2018-03-20T17:14:23.843Z,14.70
2018-03-20T17:16:51.515Z,14.30
2018-03-20T17:19:19.910Z,13.40
2018-03-20T17:21:49.441Z,15.10
2018-03-20T17:24:17.109Z,16.60
2018-03-20T17:26:44.783Z,14.30
2018-03-20T17:29:12.492Z,15.17
2018-03-20T17:31:40.167Z,14.80
2018-03-20T17:34:08.623Z,16.53
2018-03-20T17:36:36.279Z,14.80
2018-03-20T17:39:04.124Z,12.70
2018-03-20T17:41:31.828Z,15.97
2018-03-20T17:43:59.473Z,15.63
2018-03-20T17:46:27.349Z,14.97
2018-03-20T17:48:55.069Z,16.07
2018-03-20T17:51:22.931Z,16.20
2018-03-20T17:53:50.670Z,15.67
2018-03-20T17:56:18.472Z,15.23
2018-03-20T17:58:46.124Z,15.97
2018-03-20T18:01:13.976Z,16.47
2018-03-20T18:03:41.661Z,17.60
2018-03-20T18:06:09.601Z,17.00
2018-03-20T18:08:37.334Z,15.77
2018-03-20T18:11:06.170Z,19.60
2018-03-20T18:13:33.864Z,15.20
2018-03-20T18:16:01.716Z,15.67
2018-03-20T18:18:29.577Z,16.43
2018-03-20T18:20:57.331Z,13.50
2018-03-20T18:23:25.127Z,16.63
2018-03-20T18:25:52.861Z,17.73
2018-03-20T18:28:20.670Z,17.27
2018-03-20T18:30:49.220Z,17.37
2018-03-20T18:33:17.729Z,15.93
2018-03-20T18:35:45.470Z,16.90
2018-03-20T18:38:13.248Z,17.00
2018-03-20T18:40:46.814Z,15.87
2018-03-20T18:43:14.642Z,15.43
2018-03-20T18:45:42.410Z,16.00
2018-03-20T18:48:10.165Z,14.80
2018-03-20T18:50:37.945Z,17.77
2018-03-20T18:53:05.647Z,17.57
2018-03-20T18:55:33.598Z,16.73
2018-03-20T18:58:01.458Z,18.20
2018-03-20T19:00:29.334Z,15.47
2018-03-20T19:02:57.219Z,22.47
2018-03-20T19:05:25.263Z,19.07
2018-03-20T19:07:53.106Z,16.60
2018-03-20T19:10:20.768Z,17.67
2018-03-20T19:12:49.256Z,17.23
2018-03-20T19:15:17.829Z,13.33
2018-03-20T19:17:47.308Z,15.87
2018-03-20T19:20:15.215Z,13.23
2018-03-20T19:22:43.790Z,15.40
2018-03-20T19:25:11.540Z,19.17
2018-03-20T19:27:39.441Z,16.60
2018-03-20T19:30:08.207Z,15.50
2018-03-20T19:32:36.123Z,14.40
2018-03-20T19:35:04.360Z,14.80
2018-03-20T19:37:32.330Z,14.03
2018-03-20T19:40:01.457Z,14.40
2018-03-20T19:42:29.606Z,14.60
2018-03-20T19:44:57.577Z,15.73
2018-03-20T19:47:26.427Z,12.73
2018-03-20T19:49:55.161Z,14.30
2018-03-20T19:52:23.176Z,11.20
2018-03-20T19:54:52.666Z,13.93
2018-03-20T19:57:21.229Z,12.33
2018-03-20T19:59:49.118Z,13.40
2018-03-20T20:02:17.114Z,12.60
2018-03-20T20:04:45.149Z,11.77
2018-03-20T20:07:14.255Z,13.47
2018-03-20T20:09:42.419Z,12.80
2018-03-20T20:12:10.309Z,13.30
2018-03-20T20:14:38.887Z,11.43
2018-03-20T20:17:06.777Z,14.43
2018-03-20T20:19:34.492Z,13.77
2018-03-20T20:22:03.549Z,12.87
2018-03-20T20:24:31.453Z,13.90
2018-03-20T20:27:00.204Z,12.80
2018-03-20T20:29:28.180Z,15.40
2018-03-20T20:31:56.214Z,12.77
2018-03-20T20:34:25.451Z,32.67
2018-03-20T20:36:54.382Z,12.17
2018-03-20T20:39:23.144Z,11.40
2018-03-20T20:41:51.715Z,11.77
2018-03-20T20:44:19.483Z,14.90
2018-03-20T20:46:47.229Z,13.50
2018-03-20T20:49:15.736Z,14.17
2018-03-20T20:51:43.624Z,14.40
2018-03-20T20:54:11.380Z,15.83
2018-03-20T20:56:39.770Z,15.67
2018-03-20T20:59:07.550Z,15.83
2018-03-20T21:01:35.262Z,14.70
2018-03-20T21:04:03.037Z,17.20
2018-03-20T21:06:31.558Z,19.70
2018-03-20T21:08:59.274Z,19.53
2018-03-20T21:11:27.733Z,16.80
2018-03-20T21:13:55.545Z,15.70
2018-03-20T21:16:24.008Z,14.67
2018-03-20T21:18:51.767Z,13.20
2018-03-20T21:21:19.495Z,13.43
2018-03-20T21:23:47.268Z,13.17
2018-03-20T21:26:15.005Z,12.50
2018-03-20T21:28:43.637Z,10.60
2018-03-20T21:31:11.334Z,11.53
2018-03-20T21:33:39.031Z,11.37
2018-03-20T21:36:07.554Z,13.17
2018-03-20T21:38:35.258Z,12.83
2018-03-20T21:41:03.810Z,13.50
2018-03-20T21:43:31.518Z,13.57
2018-03-20T21:45:59.171Z,12.70
2018-03-20T21:48:27.263Z,13.73
2018-03-20T21:50:55.701Z,12.63
2018-03-20T21:53:23.404Z,14.30
2018-03-20T21:55:51.057Z,12.80
2018-03-20T21:58:18.853Z,13.60
2018-03-20T22:00:46.580Z,15.27
2018-03-20T22:03:14.245Z,15.23
2018-03-20T22:05:43.043Z,15.80
2018-03-20T22:08:10.668Z,13.97
2018-03-20T22:10:39.061Z,15.30
2018-03-20T22:13:07.477Z,15.17
2018-03-20T22:15:35.101Z,14.70
2018-03-20T22:18:03.628Z,15.57
2018-03-20T22:20:31.260Z,16.17
2018-03-20T22:22:59.682Z,14.77
2018-03-20T22:25:27.353Z,17.33
2018-03-20T22:27:55.010Z,13.90
2018-03-20T22:30:22.686Z,13.97
2018-03-20T22:32:50.293Z,14.90
2018-03-20T22:35:18.005Z,14.00
2018-03-20T22:37:45.773Z,15.10
2018-03-20T22:40:13.673Z,15.63
2018-03-20T22:42:41.309Z,15.70
2018-03-20T22:45:08.996Z,15.83
2018-03-20T22:47:36.673Z,15.20
2018-03-20T22:50:04.316Z,16.00
2018-03-20T22:52:32.313Z,13.73
2018-03-20T22:55:01.467Z,14.30
2018-03-20T22:57:30.164Z,14.07
2018-03-20T22:59:57.820Z,14.07
2018-03-20T23:02:26.415Z,15.50
2018-03-20T23:04:54.442Z,14.77
2018-03-20T23:07:22.186Z,13.90
2018-03-20T23:09:49.824Z,15.00
2018-03-20T23:12:18.251Z,14.07
2018-03-20T23:14:45.852Z,15.43
2018-03-20T23:17:14.252Z,14.20
2018-03-20T23:19:42.703Z,16.17
2018-03-20T23:22:10.534Z,13.80
2018-03-20T23:24:38.230Z,12.97
2018-03-20T23:27:05.870Z,14.47
2018-03-20T23:29:33.530Z,15.70
2018-03-20T23:32:03.551Z,15.63
2018-03-20T23:34:31.376Z,15.17
2018-03-20T23:37:00.639Z,15.27
2018-03-20T23:39:28.273Z,17.00
2018-03-20T23:41:56.688Z,16.90
2018-03-20T23:44:24.314Z,15.53
2018-03-20T23:46:52.724Z,15.50
2018-03-20T23:49:20.828Z,16.63
2018-03-20T23:51:48.455Z,15.27
2018-03-20T23:54:16.139Z,16.83
2018-03-20T23:56:43.791Z,14.90
2018-03-20T23:59:11.472Z,13.70
